UAL128 KIAH-PHNL
Flight info
| Callsign | UAL128 |
|---|---|
| Flight time | N/A |
| Altitude | 34000 |
| Route | PITZZ5 SAT PNG URKOP LTO 25N120W/N0490F360 25N126W 25N133W 25N140W/N0481F380 FOMAS R578 FITES LNY SHLAE1 |
| Aircraft | B772/H-SDE2E3FGHIJ5LORVWXY/LB1D1 |
Departure
| Time | 2026-05-01 13:44 |
|---|---|
| Airport | George Bush Intercontinental Airport (KIAH) |
Arrival
| Time | N/A |
|---|---|
| Airport | Daniel K. Inouye International Airport (PHNL) |
| Time | Latitude | Longitude | Altitude | Speed | Heading |
|---|---|---|---|---|---|
| 2026-05-01 13:23 | 29.98993 | -95.34116 | 111 ft | 0 kts | 270° |
| 2026-05-01 13:24 | 29.98993 | -95.34120 | 111 ft | 0 kts | 270° |
| 2026-05-01 13:34 | 29.98993 | -95.34083 | 111 ft | 4 kts | 270° |
| 2026-05-01 13:35 | 29.98986 | -95.34023 | 111 ft | 4 kts | 292° |
| 2026-05-01 13:35 | 29.98974 | -95.33997 | 111 ft | 4 kts | 314° |
| 2026-05-01 13:35 | 29.98931 | -95.33981 | 111 ft | 4 kts | 360° |
| 2026-05-01 13:36 | 29.98917 | -95.33981 | 111 ft | 0 kts | 360° |
| 2026-05-01 13:38 | 29.98943 | -95.33981 | 111 ft | 7 kts | 360° |
| 2026-05-01 13:38 | 29.98993 | -95.33982 | 109 ft | 7 kts | 360° |
| 2026-05-01 13:39 | 29.99051 | -95.33993 | 108 ft | 11 kts | 330° |
| 2026-05-01 13:39 | 29.99083 | -95.34075 | 109 ft | 11 kts | 278° |
| 2026-05-01 13:39 | 29.99085 | -95.34166 | 109 ft | 11 kts | 270° |
| 2026-05-01 13:39 | 29.99085 | -95.34267 | 111 ft | 17 kts | 269° |
| 2026-05-01 13:40 | 29.99084 | -95.34405 | 111 ft | 17 kts | 270° |
| 2026-05-01 13:40 | 29.99084 | -95.34543 | 110 ft | 17 kts | 271° |
| 2026-05-01 13:40 | 29.99084 | -95.34681 | 110 ft | 17 kts | 270° |
| 2026-05-01 13:40 | 29.99084 | -95.34818 | 109 ft | 17 kts | 270° |
| 2026-05-01 13:41 | 29.99088 | -95.34956 | 111 ft | 17 kts | 271° |
| 2026-05-01 13:41 | 29.99090 | -95.35094 | 111 ft | 17 kts | 270° |
| 2026-05-01 13:41 | 29.99090 | -95.35232 | 111 ft | 17 kts | 270° |
| 2026-05-01 13:41 | 29.99090 | -95.35370 | 111 ft | 17 kts | 270° |
| 2026-05-01 13:42 | 29.99035 | -95.35473 | 111 ft | 17 kts | 190° |
| 2026-05-01 13:42 | 29.98923 | -95.35513 | 111 ft | 17 kts | 219° |
| 2026-05-01 13:42 | 29.98853 | -95.35625 | 111 ft | 17 kts | 240° |
| 2026-05-01 13:42 | 29.98790 | -95.35733 | 111 ft | 13 kts | 216° |
| 2026-05-01 13:43 | 29.98706 | -95.35734 | 112 ft | 0 kts | 155° |
| 2026-05-01 13:43 | 29.98543 | -95.35636 | 110 ft | 67 kts | 152° |
| 2026-05-01 13:44 | 29.97878 | -95.35228 | 113 ft | 147 kts | 152° |
| 2026-05-01 13:44 | 29.96802 | -95.34583 | 339 ft | 195 kts | 153° |
| 2026-05-01 13:44 | 29.95633 | -95.33909 | 1249 ft | 200 kts | 153° |
| 2026-05-01 13:44 | 29.94273 | -95.33537 | 2135 ft | 213 kts | 188° |
| 2026-05-01 13:45 | 29.92889 | -95.34252 | 2314 ft | 230 kts | 230° |
| 2026-05-01 13:45 | 29.92085 | -95.35896 | 2483 ft | 244 kts | 249° |
| 2026-05-01 13:45 | 29.91317 | -95.37753 | 2707 ft | 267 kts | 242° |
| 2026-05-01 13:45 | 29.90373 | -95.39639 | 3187 ft | 281 kts | 238° |
| 2026-05-01 13:46 | 29.89322 | -95.41585 | 3850 ft | 287 kts | 237° |
| 2026-05-01 13:46 | 29.88252 | -95.43531 | 4676 ft | 287 kts | 237° |
| 2026-05-01 13:46 | 29.87240 | -95.45527 | 5504 ft | 287 kts | 238° |
| 2026-05-01 13:46 | 29.86247 | -95.47529 | 6327 ft | 287 kts | 237° |
| 2026-05-01 13:47 | 29.85266 | -95.49500 | 7023 ft | 289 kts | 237° |
| 2026-05-01 13:47 | 29.84274 | -95.51540 | 7686 ft | 293 kts | 238° |
| 2026-05-01 13:47 | 29.83281 | -95.53602 | 8419 ft | 294 kts | 238° |
| 2026-05-01 13:47 | 29.82483 | -95.55766 | 8987 ft | 301 kts | 258° |
| 2026-05-01 13:48 | 29.82560 | -95.58170 | 9545 ft | 306 kts | 280° |
| 2026-05-01 13:48 | 29.83015 | -95.60576 | 10227 ft | 307 kts | 280° |
| 2026-05-01 13:48 | 29.83486 | -95.63030 | 10591 ft | 323 kts | 279° |
| 2026-05-01 13:48 | 29.83983 | -95.65645 | 10797 ft | 344 kts | 279° |
| 2026-05-01 13:49 | 29.84507 | -95.68430 | 10973 ft | 364 kts | 279° |
| 2026-05-01 13:49 | 29.85046 | -95.71308 | 11594 ft | 375 kts | 278° |
| 2026-05-01 13:49 | 29.85593 | -95.74262 | 12469 ft | 376 kts | 278° |
| 2026-05-01 13:49 | 29.86139 | -95.77206 | 13516 ft | 373 kts | 277° |
| 2026-05-01 13:50 | 29.86668 | -95.80133 | 14365 ft | 372 kts | 277° |
| 2026-05-01 13:50 | 29.87201 | -95.83056 | 15118 ft | 375 kts | 277° |
| 2026-05-01 13:50 | 29.87711 | -95.85974 | 15842 ft | 375 kts | 276° |
| 2026-05-01 13:50 | 29.88219 | -95.88938 | 16518 ft | 376 kts | 276° |
| 2026-05-01 13:51 | 29.88730 | -95.91911 | 17176 ft | 378 kts | 275° |
| 2026-05-01 13:51 | 29.89242 | -95.94899 | 17816 ft | 380 kts | 275° |
| 2026-05-01 13:51 | 29.89756 | -95.97860 | 18490 ft | 381 kts | 275° |
| 2026-05-01 13:51 | 29.90268 | -96.00850 | 19117 ft | 379 kts | 275° |
| 2026-05-01 13:52 | 29.90780 | -96.03854 | 19612 ft | 382 kts | 275° |
| 2026-05-01 13:52 | 29.91300 | -96.06883 | 20110 ft | 385 kts | 275° |
| 2026-05-01 13:52 | 29.91818 | -96.09912 | 20655 ft | 385 kts | 276° |
| 2026-05-01 13:52 | 29.92334 | -96.12916 | 21154 ft | 387 kts | 276° |
| 2026-05-01 13:53 | 29.92859 | -96.15967 | 21683 ft | 387 kts | 276° |
| 2026-05-01 13:53 | 29.93898 | -96.22097 | 22637 ft | 391 kts | 276° |
| 2026-05-01 13:53 | 29.94386 | -96.25151 | 23150 ft | 392 kts | 275° |
| 2026-05-01 13:54 | 29.94872 | -96.28252 | 23693 ft | 392 kts | 275° |
| 2026-05-01 13:54 | 29.95354 | -96.31351 | 24176 ft | 393 kts | 276° |
| 2026-05-01 13:54 | 29.95841 | -96.34470 | 24587 ft | 396 kts | 276° |
| 2026-05-01 13:54 | 29.96333 | -96.37618 | 24936 ft | 400 kts | 276° |
| 2026-05-01 13:55 | 29.96825 | -96.40762 | 25220 ft | 406 kts | 276° |
| 2026-05-01 13:55 | 29.97329 | -96.43981 | 25582 ft | 409 kts | 276° |
| 2026-05-01 13:55 | 29.97838 | -96.47228 | 25941 ft | 411 kts | 276° |
| 2026-05-01 13:55 | 29.98348 | -96.50485 | 26233 ft | 415 kts | 277° |
| 2026-05-01 13:56 | 29.98864 | -96.53786 | 26527 ft | 418 kts | 277° |
| 2026-05-01 13:56 | 29.99296 | -96.57109 | 26785 ft | 419 kts | 271° |
| 2026-05-01 13:56 | 29.99214 | -96.60470 | 27049 ft | 420 kts | 264° |
| 2026-05-01 13:56 | 29.98947 | -96.63837 | 27313 ft | 423 kts | 264° |
| 2026-05-01 13:57 | 29.98661 | -96.67229 | 27561 ft | 426 kts | 264° |
| 2026-05-01 13:57 | 29.98474 | -96.69491 | 27709 ft | 428 kts | 264° |
| 2026-05-01 13:57 | 29.98115 | -96.74048 | 28032 ft | 432 kts | 264° |
| 2026-05-01 13:57 | 29.97855 | -96.77515 | 28266 ft | 434 kts | 264° |
| 2026-05-01 13:58 | 29.97602 | -96.81002 | 28498 ft | 436 kts | 264° |
| 2026-05-01 13:58 | 29.97356 | -96.84456 | 28704 ft | 439 kts | 265° |
| 2026-05-01 13:58 | 29.97106 | -96.87988 | 28900 ft | 441 kts | 265° |
| 2026-05-01 13:58 | 29.96855 | -96.91531 | 29091 ft | 443 kts | 265° |
| 2026-05-01 13:59 | 29.96602 | -96.95096 | 29292 ft | 445 kts | 265° |
| 2026-05-01 13:59 | 29.96350 | -96.98624 | 29444 ft | 448 kts | 265° |
| 2026-05-01 13:59 | 29.96092 | -97.02221 | 29632 ft | 449 kts | 265° |
| 2026-05-01 13:59 | 29.95833 | -97.05813 | 29813 ft | 451 kts | 265° |
| 2026-05-01 14:00 | 29.95571 | -97.09432 | 29970 ft | 453 kts | 265° |
| 2026-05-01 14:00 | 29.95307 | -97.13065 | 30180 ft | 453 kts | 265° |
| 2026-05-01 14:00 | 29.95046 | -97.16641 | 30425 ft | 452 kts | 265° |
| 2026-05-01 14:00 | 29.94781 | -97.20255 | 30703 ft | 451 kts | 265° |
| 2026-05-01 14:01 | 29.94520 | -97.23803 | 30958 ft | 450 kts | 265° |
| 2026-05-01 14:01 | 29.94268 | -97.27212 | 31173 ft | 450 kts | 264° |
| 2026-05-01 14:01 | 29.94002 | -97.30799 | 31384 ft | 449 kts | 265° |
| 2026-05-01 14:01 | 29.93734 | -97.34401 | 31609 ft | 449 kts | 265° |
| 2026-05-01 14:02 | 29.93466 | -97.37995 | 31837 ft | 448 kts | 265° |
| 2026-05-01 14:02 | 29.93201 | -97.41535 | 32047 ft | 448 kts | 265° |
| 2026-05-01 14:02 | 29.92932 | -97.45109 | 32248 ft | 447 kts | 265° |
| 2026-05-01 14:02 | 29.92662 | -97.48692 | 32454 ft | 447 kts | 265° |
| 2026-05-01 14:03 | 29.92390 | -97.52279 | 32669 ft | 446 kts | 265° |
| 2026-05-01 14:03 | 29.92123 | -97.55795 | 32872 ft | 446 kts | 265° |
| 2026-05-01 14:03 | 29.91851 | -97.59359 | 33075 ft | 445 kts | 265° |
| 2026-05-01 14:03 | 29.91579 | -97.62905 | 33325 ft | 443 kts | 265° |
| 2026-05-01 14:04 | 29.91307 | -97.66454 | 33546 ft | 442 kts | 265° |
| 2026-05-01 14:04 | 29.91034 | -97.69994 | 33729 ft | 442 kts | 265° |
| 2026-05-01 14:04 | 29.90760 | -97.73535 | 33879 ft | 443 kts | 265° |
| 2026-05-01 14:04 | 29.90577 | -97.75893 | 33913 ft | 443 kts | 265° |
| 2026-05-01 14:05 | 29.89931 | -97.84100 | 33986 ft | 441 kts | 264° |
| 2026-05-01 14:05 | 29.89282 | -97.87563 | 33978 ft | 443 kts | 251° |
| 2026-05-01 14:05 | 29.87970 | -97.90723 | 34002 ft | 442 kts | 245° |
| 2026-05-01 14:06 | 29.85172 | -97.97089 | 33994 ft | 445 kts | 246° |
| 2026-05-01 14:06 | 29.82447 | -98.03516 | 33997 ft | 447 kts | 247° |
| 2026-05-01 14:07 | 29.79740 | -98.09943 | 33996 ft | 448 kts | 246° |
| 2026-05-01 14:08 | 29.75649 | -98.19624 | 33999 ft | 447 kts | 246° |
| 2026-05-01 14:08 | 29.72921 | -98.26059 | 34001 ft | 446 kts | 246° |
| 2026-05-01 14:09 | 29.70213 | -98.32441 | 33991 ft | 445 kts | 246° |
| 2026-05-01 14:09 | 29.67492 | -98.38839 | 33985 ft | 444 kts | 246° |
| 2026-05-01 14:10 | 29.64792 | -98.45177 | 33982 ft | 443 kts | 246° |
| 2026-05-01 14:10 | 29.61956 | -98.51465 | 33977 ft | 442 kts | 244° |
| 2026-05-01 14:11 | 29.58971 | -98.57637 | 33969 ft | 440 kts | 243° |
| 2026-05-01 14:11 | 29.54533 | -98.66825 | 33973 ft | 438 kts | 243° |
| 2026-05-01 14:12 | 29.51599 | -98.72952 | 33959 ft | 437 kts | 243° |
| 2026-05-01 14:12 | 29.49164 | -98.78041 | 33960 ft | 436 kts | 243° |
| 2026-05-01 14:13 | 29.46244 | -98.84143 | 33944 ft | 435 kts | 243° |
| 2026-05-01 14:13 | 29.43340 | -98.90200 | 33940 ft | 434 kts | 243° |
| 2026-05-01 14:14 | 29.40420 | -98.96276 | 33932 ft | 433 kts | 243° |
| 2026-05-01 14:14 | 29.37523 | -99.02298 | 33939 ft | 432 kts | 243° |
| 2026-05-01 14:15 | 29.34610 | -99.08345 | 33930 ft | 431 kts | 243° |
| 2026-05-01 14:15 | 29.31722 | -99.14329 | 33923 ft | 431 kts | 243° |
| 2026-05-01 14:16 | 29.28815 | -99.20344 | 33926 ft | 430 kts | 242° |
| 2026-05-01 14:16 | 29.25927 | -99.26311 | 33928 ft | 430 kts | 242° |
| 2026-05-01 14:17 | 29.23023 | -99.32302 | 33927 ft | 429 kts | 242° |
| 2026-05-01 14:17 | 29.20136 | -99.38249 | 33927 ft | 429 kts | 242° |
| 2026-05-01 14:18 | 29.17231 | -99.44223 | 33929 ft | 429 kts | 242° |
| 2026-05-01 14:18 | 29.14340 | -99.50159 | 33930 ft | 428 kts | 242° |
| 2026-05-01 14:19 | 29.11435 | -99.56119 | 33937 ft | 428 kts | 242° |
| 2026-05-01 14:19 | 29.08529 | -99.62070 | 33944 ft | 428 kts | 242° |
| 2026-05-01 14:20 | 29.04183 | -99.70954 | 33935 ft | 427 kts | 242° |
| 2026-05-01 14:21 | 29.01270 | -99.76898 | 33936 ft | 427 kts | 242° |
| 2026-05-01 14:21 | 28.98361 | -99.82824 | 33945 ft | 427 kts | 242° |
| 2026-05-01 14:22 | 28.94002 | -99.91689 | 33947 ft | 427 kts | 242° |
| 2026-05-01 14:22 | 28.91106 | -99.97567 | 33936 ft | 427 kts | 242° |
| 2026-05-01 14:23 | 28.88190 | -100.03479 | 33953 ft | 426 kts | 242° |
| 2026-05-01 14:23 | 28.85278 | -100.09374 | 33938 ft | 425 kts | 242° |
| 2026-05-01 14:24 | 28.82374 | -100.15243 | 33943 ft | 423 kts | 242° |
| 2026-05-01 14:24 | 28.79498 | -100.21049 | 33945 ft | 422 kts | 242° |
| 2026-05-01 14:25 | 28.76603 | -100.26885 | 33951 ft | 421 kts | 242° |
| 2026-05-01 14:25 | 28.73735 | -100.32657 | 33947 ft | 420 kts | 242° |
| 2026-05-01 14:26 | 28.69409 | -100.41351 | 33950 ft | 419 kts | 242° |
| 2026-05-01 14:27 | 28.66543 | -100.47102 | 33943 ft | 419 kts | 242° |
| 2026-05-01 14:27 | 28.63746 | -100.52943 | 33947 ft | 418 kts | 246° |
| 2026-05-01 14:28 | 28.60795 | -100.62244 | 33947 ft | 418 kts | 252° |
| 2026-05-01 14:28 | 28.59021 | -100.68571 | 33946 ft | 419 kts | 252° |
| 2026-05-01 14:29 | 28.57244 | -100.74863 | 33951 ft | 419 kts | 252° |
| 2026-05-01 14:30 | 28.53657 | -100.87493 | 33950 ft | 419 kts | 252° |
| 2026-05-01 14:31 | 28.50980 | -100.96892 | 33951 ft | 418 kts | 252° |
| 2026-05-01 14:31 | 28.49183 | -101.03185 | 33948 ft | 417 kts | 252° |
| 2026-05-01 14:32 | 28.47398 | -101.09424 | 33953 ft | 416 kts | 252° |
| 2026-05-01 14:32 | 28.45603 | -101.15680 | 33951 ft | 415 kts | 252° |
| 2026-05-01 14:33 | 28.43809 | -101.21923 | 33951 ft | 415 kts | 252° |
| 2026-05-01 14:33 | 28.42026 | -101.28122 | 33957 ft | 414 kts | 252° |
| 2026-05-01 14:34 | 28.40227 | -101.34358 | 33949 ft | 414 kts | 251° |
| 2026-05-01 14:34 | 28.38431 | -101.40575 | 33956 ft | 413 kts | 251° |
| 2026-05-01 14:35 | 28.36644 | -101.46747 | 33954 ft | 413 kts | 251° |
| 2026-05-01 14:35 | 28.34843 | -101.52957 | 33954 ft | 412 kts | 251° |
| 2026-05-01 14:36 | 28.33055 | -101.59109 | 33961 ft | 412 kts | 251° |
| 2026-05-01 14:36 | 28.31255 | -101.65289 | 33975 ft | 411 kts | 251° |
| 2026-05-01 14:37 | 28.29468 | -101.71418 | 33972 ft | 411 kts | 251° |
| 2026-05-01 14:37 | 28.27667 | -101.77581 | 33978 ft | 410 kts | 251° |
| 2026-05-01 14:38 | 28.25877 | -101.83703 | 33975 ft | 411 kts | 251° |
| 2026-05-01 14:38 | 28.24063 | -101.89882 | 33967 ft | 411 kts | 251° |
| 2026-05-01 14:39 | 28.22261 | -101.96011 | 33964 ft | 411 kts | 251° |
| 2026-05-01 14:39 | 28.20450 | -102.02166 | 33967 ft | 410 kts | 251° |
| 2026-05-01 14:40 | 28.18655 | -102.08252 | 33986 ft | 408 kts | 251° |
| 2026-05-01 14:40 | 28.16844 | -102.14377 | 33979 ft | 410 kts | 251° |
| 2026-05-01 14:41 | 28.15026 | -102.20516 | 33960 ft | 410 kts | 251° |
| 2026-05-01 14:41 | 28.13215 | -102.26625 | 33959 ft | 411 kts | 251° |
| 2026-05-01 14:42 | 28.11395 | -102.32756 | 33969 ft | 409 kts | 251° |
| 2026-05-01 14:42 | 28.09581 | -102.38847 | 33966 ft | 410 kts | 251° |
| 2026-05-01 14:43 | 28.07750 | -102.44983 | 33978 ft | 410 kts | 251° |
| 2026-05-01 14:43 | 28.05928 | -102.51085 | 33988 ft | 410 kts | 251° |
| 2026-05-01 14:44 | 28.04096 | -102.57207 | 33993 ft | 409 kts | 251° |
| 2026-05-01 14:44 | 28.01351 | -102.66351 | 33992 ft | 409 kts | 251° |
| 2026-05-01 14:45 | 27.98606 | -102.75482 | 33987 ft | 409 kts | 251° |
| 2026-05-01 14:46 | 27.96763 | -102.81597 | 33992 ft | 409 kts | 251° |
| 2026-05-01 14:46 | 27.93994 | -102.90757 | 33991 ft | 410 kts | 251° |
| 2026-05-01 14:47 | 27.92156 | -102.96825 | 33991 ft | 410 kts | 251° |
| 2026-05-01 14:48 | 27.89374 | -103.05989 | 33990 ft | 410 kts | 251° |
| 2026-05-01 14:48 | 27.86601 | -103.15102 | 33989 ft | 409 kts | 251° |
| 2026-05-01 14:49 | 27.82892 | -103.27251 | 34335 ft | 408 kts | 251° |
| 2026-05-01 14:50 | 27.81657 | -103.31287 | 34668 ft | 404 kts | 251° |
| 2026-05-01 14:50 | 27.79228 | -103.39210 | 35200 ft | 401 kts | 251° |
| 2026-05-01 14:51 | 27.78312 | -103.42194 | 35372 ft | 400 kts | 251° |
| 2026-05-01 14:51 | 27.76485 | -103.48136 | 35696 ft | 399 kts | 251° |
| 2026-05-01 14:52 | 27.74674 | -103.54018 | 35920 ft | 397 kts | 252° |
| 2026-05-01 14:52 | 27.73764 | -103.56971 | 35975 ft | 397 kts | 251° |
| 2026-05-01 14:53 | 27.71040 | -103.65790 | 36012 ft | 397 kts | 251° |
| 2026-05-01 14:53 | 27.69217 | -103.71682 | 36008 ft | 397 kts | 251° |
| 2026-05-01 14:54 | 27.67402 | -103.77535 | 36018 ft | 397 kts | 251° |
| 2026-05-01 14:54 | 27.65572 | -103.83425 | 36018 ft | 397 kts | 251° |
| 2026-05-01 14:55 | 27.63744 | -103.89301 | 35999 ft | 395 kts | 251° |
| 2026-05-01 14:55 | 27.61932 | -103.95117 | 36019 ft | 395 kts | 251° |
| 2026-05-01 14:56 | 27.60100 | -104.00985 | 36018 ft | 396 kts | 251° |
| 2026-05-01 14:56 | 27.58276 | -104.06819 | 36019 ft | 396 kts | 251° |
| 2026-05-01 14:57 | 27.56438 | -104.12687 | 36018 ft | 396 kts | 251° |
| 2026-05-01 14:57 | 27.53686 | -104.21453 | 36028 ft | 397 kts | 251° |
| 2026-05-01 14:58 | 27.51837 | -104.27333 | 36018 ft | 398 kts | 251° |
| 2026-05-01 14:58 | 27.49995 | -104.33180 | 36008 ft | 397 kts | 251° |
| 2026-05-01 14:59 | 27.48144 | -104.39046 | 36031 ft | 397 kts | 251° |
| 2026-05-01 14:59 | 27.46601 | -104.43929 | 36024 ft | 397 kts | 251° |
| 2026-05-01 15:00 | 27.43805 | -104.52753 | 36031 ft | 399 kts | 251° |
| 2026-05-01 15:01 | 27.41946 | -104.58610 | 36017 ft | 400 kts | 251° |
| 2026-05-01 15:01 | 27.40070 | -104.64516 | 36007 ft | 400 kts | 251° |
| 2026-05-01 15:02 | 27.38199 | -104.70394 | 36008 ft | 400 kts | 251° |
| 2026-05-01 15:02 | 27.36329 | -104.76260 | 36010 ft | 401 kts | 251° |
| 2026-05-01 15:03 | 27.34439 | -104.82173 | 36016 ft | 401 kts | 251° |
| 2026-05-01 15:03 | 27.32545 | -104.88095 | 36003 ft | 402 kts | 251° |
| 2026-05-01 15:04 | 27.30659 | -104.93977 | 36009 ft | 402 kts | 251° |
| 2026-05-01 15:04 | 27.28758 | -104.99902 | 36013 ft | 402 kts | 251° |
| 2026-05-01 15:05 | 27.26865 | -105.05789 | 36009 ft | 402 kts | 251° |
| 2026-05-01 15:05 | 27.24959 | -105.11710 | 36008 ft | 402 kts | 251° |
| 2026-05-01 15:06 | 27.23055 | -105.17609 | 36009 ft | 403 kts | 251° |
| 2026-05-01 15:06 | 27.21140 | -105.23533 | 36009 ft | 403 kts | 251° |
| 2026-05-01 15:07 | 27.19218 | -105.29471 | 36016 ft | 404 kts | 251° |
| 2026-05-01 15:07 | 27.17305 | -105.35373 | 36021 ft | 404 kts | 251° |
| 2026-05-01 15:08 | 27.15375 | -105.41319 | 36022 ft | 404 kts | 251° |
| 2026-05-01 15:08 | 27.13444 | -105.47256 | 36018 ft | 405 kts | 251° |
| 2026-05-01 15:09 | 27.11518 | -105.53167 | 36019 ft | 405 kts | 251° |
| 2026-05-01 15:09 | 27.09576 | -105.59119 | 36023 ft | 405 kts | 251° |
| 2026-05-01 15:10 | 27.07627 | -105.65080 | 36015 ft | 405 kts | 251° |
| 2026-05-01 15:10 | 27.04720 | -105.73956 | 36016 ft | 405 kts | 251° |
| 2026-05-01 15:11 | 27.01803 | -105.82845 | 36021 ft | 406 kts | 251° |
| 2026-05-01 15:12 | 26.99841 | -105.88804 | 36013 ft | 408 kts | 251° |
| 2026-05-01 15:12 | 26.96866 | -105.97828 | 36023 ft | 413 kts | 251° |
| 2026-05-01 15:14 | 26.91851 | -106.12994 | 36078 ft | 418 kts | 251° |
| 2026-05-01 15:14 | 26.88807 | -106.22162 | 36072 ft | 417 kts | 251° |
| 2026-05-01 15:15 | 26.84773 | -106.34283 | 36070 ft | 414 kts | 252° |
| 2026-05-01 15:16 | 26.80757 | -106.46316 | 36068 ft | 412 kts | 251° |
| 2026-05-01 15:18 | 26.75721 | -106.61346 | 36088 ft | 413 kts | 251° |
| 2026-05-01 15:19 | 26.71777 | -106.73417 | 36101 ft | 412 kts | 256° |
| 2026-05-01 15:19 | 26.70146 | -106.82854 | 36096 ft | 412 kts | 261° |
| 2026-05-01 15:20 | 26.68807 | -106.92325 | 36093 ft | 413 kts | 261° |
| 2026-05-01 15:21 | 26.67899 | -106.98648 | 36091 ft | 414 kts | 261° |
| 2026-05-01 15:21 | 26.66987 | -107.04994 | 36109 ft | 411 kts | 261° |
| 2026-05-01 15:22 | 26.65612 | -107.14482 | 36087 ft | 412 kts | 261° |
| 2026-05-01 15:22 | 26.64699 | -107.20775 | 36071 ft | 410 kts | 261° |
| 2026-05-01 15:23 | 26.63779 | -107.27080 | 36104 ft | 409 kts | 261° |
| 2026-05-01 15:23 | 26.62864 | -107.33320 | 36078 ft | 410 kts | 261° |
| 2026-05-01 15:24 | 26.61940 | -107.39628 | 36089 ft | 411 kts | 261° |
| 2026-05-01 15:24 | 26.61018 | -107.45909 | 36063 ft | 411 kts | 261° |
| 2026-05-01 15:25 | 26.60087 | -107.52220 | 36053 ft | 411 kts | 261° |
| 2026-05-01 15:25 | 26.59152 | -107.58533 | 36066 ft | 410 kts | 261° |
| 2026-05-01 15:26 | 26.58223 | -107.64786 | 36052 ft | 409 kts | 261° |
| 2026-05-01 15:26 | 26.57289 | -107.71061 | 36027 ft | 408 kts | 261° |
| 2026-05-01 15:27 | 26.56359 | -107.77273 | 36032 ft | 406 kts | 262° |
| 2026-05-01 15:28 | 26.54955 | -107.86633 | 36021 ft | 407 kts | 262° |
| 2026-05-01 15:28 | 26.54021 | -107.92839 | 36014 ft | 407 kts | 262° |
| 2026-05-01 15:29 | 26.52607 | -108.02196 | 36013 ft | 406 kts | 262° |
| 2026-05-01 15:30 | 26.50717 | -108.14637 | 35993 ft | 407 kts | 262° |
| 2026-05-01 15:31 | 26.47850 | -108.33362 | 35984 ft | 410 kts | 261° |
| 2026-05-01 15:32 | 26.45921 | -108.45852 | 35974 ft | 408 kts | 261° |
| 2026-05-01 15:34 | 26.43022 | -108.64515 | 35962 ft | 407 kts | 261° |